createdAt,value
2023-03-05T00:00:35.149Z,34.00
2023-03-05T00:03:01.535Z,33.07
2023-03-05T00:05:27.887Z,33.27
2023-03-05T00:07:55.803Z,32.99
2023-03-05T00:10:22.311Z,33.45
2023-03-05T00:12:50.706Z,33.34
2023-03-05T00:15:17.149Z,33.32
2023-03-05T00:17:44.420Z,33.40
2023-03-05T00:20:11.818Z,33.12
2023-03-05T00:22:38.414Z,33.65
2023-03-05T00:25:07.427Z,33.43
2023-03-05T00:27:33.782Z,33.60
2023-03-05T00:30:00.347Z,32.42
2023-03-05T00:32:26.975Z,33.42
2023-03-05T00:34:55.777Z,33.84
2023-03-05T00:37:22.386Z,34.51
2023-03-05T00:39:49.064Z,33.93
2023-03-05T00:42:17.455Z,32.92
2023-03-05T00:44:43.849Z,32.81
2023-03-05T00:47:10.193Z,33.90
2023-03-05T00:49:36.687Z,33.76
2023-03-05T00:52:03.083Z,33.32
2023-03-05T00:54:29.442Z,33.78
2023-03-05T00:56:56.103Z,33.39
2023-03-05T00:59:22.579Z,34.00
2023-03-05T01:01:50.731Z,33.96
2023-03-05T01:04:17.284Z,34.00
2023-03-05T01:06:43.692Z,33.76
2023-03-05T01:09:10.238Z,33.56
2023-03-05T01:11:36.787Z,32.61
2023-03-05T01:14:03.149Z,32.80
2023-03-05T01:16:29.895Z,32.87
2023-03-05T01:18:56.312Z,32.72
2023-03-05T01:21:23.719Z,32.46
2023-03-05T01:23:50.273Z,32.58
2023-03-05T01:26:16.779Z,32.56
2023-03-05T01:28:43.697Z,32.47
2023-03-05T01:31:12.163Z,33.32
2023-03-05T01:33:38.679Z,32.45
2023-03-05T01:36:05.060Z,33.15
2023-03-05T01:38:31.606Z,33.16
2023-03-05T01:40:58.097Z,33.28
2023-03-05T01:43:24.441Z,33.35
2023-03-05T01:45:51.069Z,33.27
2023-03-05T01:48:17.564Z,32.84
2023-03-05T01:50:44.009Z,32.90
2023-03-05T01:53:10.653Z,33.92
2023-03-05T01:55:41.368Z,34.54
2023-03-05T01:58:07.762Z,33.97
2023-03-05T02:00:34.188Z,33.99
2023-03-05T02:03:00.551Z,34.89
2023-03-05T02:05:26.994Z,33.87
2023-03-05T02:07:53.412Z,34.04
2023-03-05T02:10:20.026Z,34.01
2023-03-05T02:12:47.428Z,34.37
2023-03-05T02:15:14.063Z,33.25
2023-03-05T02:17:40.439Z,33.17
2023-03-05T02:20:06.994Z,32.73
2023-03-05T02:22:33.338Z,32.30
2023-03-05T02:24:59.781Z,31.87
2023-03-05T02:27:26.720Z,31.73
2023-03-05T02:29:54.102Z,32.40
2023-03-05T02:32:20.918Z,33.11
2023-03-05T02:34:47.363Z,33.38
2023-03-05T02:37:13.739Z,33.01
2023-03-05T02:39:40.228Z,31.71
2023-03-05T02:42:07.639Z,31.60
2023-03-05T02:44:34.506Z,31.96
2023-03-05T02:47:00.909Z,32.55
2023-03-05T02:49:30.358Z,31.37
2023-03-05T02:51:56.922Z,31.09
2023-03-05T02:54:24.507Z,30.61
2023-03-05T02:56:50.971Z,31.40
2023-03-05T02:59:17.621Z,30.75
2023-03-05T03:01:44.343Z,30.39
2023-03-05T03:04:10.778Z,31.69
2023-03-05T03:06:37.732Z,31.70
2023-03-05T03:09:04.408Z,32.63
2023-03-05T03:11:31.698Z,33.22
2023-03-05T03:13:58.259Z,33.68
2023-03-05T03:16:24.770Z,33.49
2023-03-05T03:18:52.336Z,33.24
2023-03-05T03:21:20.978Z,33.11
2023-03-05T03:23:48.228Z,32.73
2023-03-05T03:26:15.133Z,33.38
2023-03-05T03:28:43.051Z,32.70
2023-03-05T03:31:09.818Z,33.39
2023-03-05T03:33:36.201Z,33.70
2023-03-05T03:36:02.558Z,33.83
2023-03-05T03:38:28.991Z,35.25
2023-03-05T03:40:55.611Z,34.23
2023-03-05T03:43:21.968Z,34.26
2023-03-05T03:45:48.410Z,34.91
2023-03-05T03:48:14.875Z,33.98
2023-03-05T03:50:41.223Z,33.72
2023-03-05T03:53:08.297Z,32.66
2023-03-05T03:55:34.687Z,32.24
2023-03-05T03:58:03.558Z,32.48
2023-03-05T04:00:30.135Z,31.88
2023-03-05T04:02:57.329Z,32.13
2023-03-05T04:05:23.968Z,32.02
2023-03-05T04:07:50.586Z,32.39
2023-03-05T04:10:16.922Z,32.11
2023-03-05T04:12:43.665Z,32.53
2023-03-05T04:15:10.023Z,32.83
2023-03-05T04:17:36.898Z,33.21
2023-03-05T04:20:03.245Z,32.71
2023-03-05T04:22:30.400Z,33.06
2023-03-05T04:24:56.755Z,32.61
2023-03-05T04:27:23.138Z,34.08
2023-03-05T04:29:49.532Z,33.32
2023-03-05T04:32:16.611Z,33.07
2023-03-05T04:34:43.016Z,32.83
2023-03-05T04:37:09.450Z,33.26
2023-03-05T04:39:36.864Z,34.55
2023-03-05T04:42:03.874Z,33.74
2023-03-05T04:44:30.370Z,33.88
2023-03-05T04:46:56.943Z,33.88
2023-03-05T04:49:23.302Z,33.37
2023-03-05T04:51:49.658Z,32.95
2023-03-05T04:54:17.085Z,33.87
2023-03-05T04:56:44.257Z,34.43
2023-03-05T04:59:12.911Z,35.91
2023-03-05T05:01:40.349Z,34.89
2023-03-05T05:04:06.970Z,35.01
2023-03-05T05:06:33.395Z,36.23
2023-03-05T05:09:00.110Z,35.99
2023-03-05T05:11:26.700Z,34.95
2023-03-05T05:13:53.427Z,34.60
2023-03-05T05:16:19.863Z,34.64
2023-03-05T05:18:46.305Z,33.88
2023-03-05T05:21:12.815Z,36.77
2023-03-05T05:23:40.299Z,36.46
2023-03-05T05:26:06.874Z,35.32
2023-03-05T05:28:36.158Z,34.86
2023-03-05T05:31:08.385Z,36.14
2023-03-05T05:33:34.800Z,35.11
2023-03-05T05:36:01.213Z,34.87
2023-03-05T05:38:27.657Z,35.25
2023-03-05T05:40:54.301Z,35.52
2023-03-05T05:43:20.901Z,34.43
2023-03-05T05:45:47.567Z,35.25
2023-03-05T05:48:18.991Z,34.71
2023-03-05T05:50:45.333Z,34.40
2023-03-05T05:53:11.737Z,35.04
2023-03-05T05:55:38.093Z,34.50
2023-03-05T05:58:04.473Z,34.86
2023-03-05T06:00:30.823Z,34.57
2023-03-05T06:02:57.633Z,34.02
2023-03-05T06:05:24.127Z,33.50
2023-03-05T06:07:51.510Z,34.65
2023-03-05T06:10:18.089Z,34.83
2023-03-05T06:12:44.472Z,35.04
2023-03-05T06:15:10.987Z,35.78
2023-03-05T06:17:37.563Z,34.82
2023-03-05T06:20:03.902Z,35.64
2023-03-05T06:22:30.286Z,35.90
2023-03-05T06:24:56.643Z,36.22
2023-03-05T06:27:23.007Z,35.19
2023-03-05T06:29:49.354Z,35.32
2023-03-05T06:32:15.723Z,36.14
2023-03-05T06:34:42.194Z,35.48
2023-03-05T06:37:10.898Z,35.99
2023-03-05T06:39:37.335Z,36.72
2023-03-05T06:42:03.769Z,35.95
2023-03-05T06:44:32.693Z,37.57
2023-03-05T06:46:59.037Z,37.12
2023-03-05T06:49:25.430Z,37.76
2023-03-05T06:51:51.822Z,37.85
2023-03-05T06:54:21.005Z,38.25
2023-03-05T06:56:47.770Z,37.04
2023-03-05T06:59:14.183Z,37.55
2023-03-05T07:01:41.609Z,38.10
2023-03-05T07:04:07.988Z,37.25
2023-03-05T07:06:34.466Z,37.28
2023-03-05T07:09:00.908Z,38.31
2023-03-05T07:11:27.267Z,37.80
2023-03-05T07:13:53.823Z,39.08
2023-03-05T07:16:20.410Z,39.41
2023-03-05T07:18:46.961Z,37.31
2023-03-05T07:21:14.375Z,37.21
2023-03-05T07:23:40.759Z,38.31
2023-03-05T07:26:07.564Z,38.78
2023-03-05T07:28:33.972Z,38.80
2023-03-05T07:31:00.608Z,39.65
2023-03-05T07:33:27.294Z,39.62
2023-03-05T07:35:53.783Z,40.05
2023-03-05T07:38:20.213Z,39.63
2023-03-05T07:40:46.846Z,40.17
2023-03-05T07:43:13.337Z,40.08
2023-03-05T07:45:40.039Z,41.11
2023-03-05T07:48:07.228Z,40.24
2023-03-05T07:50:33.615Z,39.25
2023-03-05T07:53:01.105Z,41.26
2023-03-05T07:55:27.498Z,41.36
2023-03-05T07:57:55.120Z,43.52
2023-03-05T08:00:21.513Z,44.78
2023-03-05T08:02:48.576Z,46.48
2023-03-05T08:05:14.990Z,48.66
2023-03-05T08:07:44.471Z,48.76
2023-03-05T08:10:11.964Z,49.89
2023-03-05T08:12:38.313Z,50.66
2023-03-05T08:15:04.665Z,52.56
2023-03-05T08:17:31.051Z,52.16
2023-03-05T08:19:57.407Z,51.91
2023-03-05T08:22:27.296Z,51.16
2023-03-05T08:24:53.774Z,50.42
2023-03-05T08:27:20.253Z,50.60
2023-03-05T08:29:46.657Z,52.76
2023-03-05T08:32:13.058Z,55.36
2023-03-05T08:34:39.502Z,54.44
2023-03-05T08:37:05.935Z,54.14
2023-03-05T08:39:32.325Z,56.76
2023-03-05T08:41:58.670Z,54.91
2023-03-05T08:44:25.087Z,53.20
2023-03-05T08:46:51.485Z,52.31
2023-03-05T08:49:20.331Z,53.65
2023-03-05T08:51:46.889Z,52.85
2023-03-05T08:54:13.337Z,54.01
2023-03-05T08:56:39.725Z,52.04
2023-03-05T08:59:06.232Z,51.16
2023-03-05T09:01:32.687Z,52.33
2023-03-05T09:03:59.264Z,52.12
2023-03-05T09:06:25.631Z,54.26
2023-03-05T09:08:51.985Z,53.54
2023-03-05T09:11:18.558Z,53.21
2023-03-05T09:13:45.429Z,52.29
2023-03-05T09:16:11.884Z,52.68
2023-03-05T09:18:38.314Z,53.97
2023-03-05T09:21:04.750Z,52.60
2023-03-05T09:23:31.200Z,53.14
2023-03-05T09:25:57.986Z,54.14
2023-03-05T09:28:24.388Z,53.50
2023-03-05T09:30:50.897Z,54.10
2023-03-05T09:33:17.513Z,54.87
2023-03-05T09:35:43.906Z,53.20
2023-03-05T09:38:10.490Z,53.94
2023-03-05T09:40:36.907Z,52.31
2023-03-05T09:43:03.259Z,52.57
2023-03-05T09:45:29.640Z,52.02
2023-03-05T09:47:56.069Z,52.08
2023-03-05T09:50:22.509Z,51.18
2023-03-05T09:52:48.894Z,51.69
2023-03-05T09:55:17.596Z,50.85
2023-03-05T09:57:45.786Z,50.53
2023-03-05T10:00:12.554Z,52.62
2023-03-05T10:02:39.161Z,52.21
2023-03-05T10:05:05.633Z,52.55
2023-03-05T10:07:33.041Z,52.31
2023-03-05T10:09:59.436Z,51.30
2023-03-05T10:12:25.826Z,52.22
2023-03-05T10:14:52.237Z,51.38
2023-03-05T10:17:19.661Z,51.27
2023-03-05T10:19:46.110Z,50.62
2023-03-05T10:22:12.826Z,50.48
2023-03-05T10:24:39.210Z,51.14
2023-03-05T10:27:05.671Z,50.41
2023-03-05T10:29:34.955Z,49.74
2023-03-05T10:32:02.543Z,50.84
2023-03-05T10:34:29.103Z,50.29
2023-03-05T10:36:57.877Z,50.49
2023-03-05T10:39:24.691Z,49.78
2023-03-05T10:41:51.252Z,50.60
2023-03-05T10:44:17.646Z,50.94
2023-03-05T10:46:44.023Z,50.21
2023-03-05T10:49:10.528Z,49.88
2023-03-05T10:51:37.018Z,51.60
2023-03-05T10:54:06.704Z,49.92
2023-03-05T10:56:33.064Z,51.35
2023-03-05T10:59:01.724Z,51.05
2023-03-05T11:01:28.302Z,49.84
2023-03-05T11:03:54.726Z,50.01
2023-03-05T11:06:21.212Z,49.31
2023-03-05T11:08:47.613Z,49.34
2023-03-05T11:11:14.087Z,49.78
2023-03-05T11:13:40.474Z,50.45
2023-03-05T11:16:06.921Z,51.06
2023-03-05T11:18:33.571Z,51.26
2023-03-05T11:21:00.121Z,49.92
2023-03-05T11:23:27.748Z,49.56
2023-03-05T11:25:57.293Z,50.34
2023-03-05T11:28:32.280Z,49.08
2023-03-05T11:30:59.741Z,51.79
2023-03-05T11:33:26.161Z,50.61
2023-03-05T11:35:54.674Z,49.85
2023-03-05T11:38:21.044Z,49.15
2023-03-05T11:40:47.499Z,47.80
2023-03-05T11:43:13.896Z,48.22
2023-03-05T11:45:40.275Z,48.00
2023-03-05T11:48:06.660Z,48.70
2023-03-05T11:50:33.244Z,47.74
2023-03-05T11:52:59.712Z,48.04
2023-03-05T11:55:28.245Z,48.79
2023-03-05T11:57:54.651Z,48.84
2023-03-05T12:00:21.890Z,48.77
2023-03-05T12:02:56.492Z,48.81
2023-03-05T12:05:22.865Z,49.00
2023-03-05T12:07:49.515Z,49.07
2023-03-05T12:10:16.042Z,48.38
2023-03-05T12:12:42.695Z,49.59
2023-03-05T12:15:09.102Z,49.82
2023-03-05T12:17:35.450Z,49.63
2023-03-05T12:20:01.825Z,48.36
2023-03-05T12:22:28.227Z,48.98
2023-03-05T12:24:54.604Z,48.62
2023-03-05T12:27:21.160Z,48.83
2023-03-05T12:29:47.567Z,48.21
2023-03-05T12:32:13.968Z,47.84
2023-03-05T12:34:40.648Z,49.12
2023-03-05T12:37:07.138Z,49.34
2023-03-05T12:39:33.602Z,48.84
2023-03-05T12:42:00.206Z,48.14
2023-03-05T12:44:28.781Z,48.22
2023-03-05T12:46:57.499Z,49.98
2023-03-05T12:49:24.277Z,49.47
2023-03-05T12:51:51.122Z,49.24
2023-03-05T12:54:19.132Z,48.50
2023-03-05T12:56:45.555Z,49.08
2023-03-05T12:59:12.044Z,48.76
2023-03-05T13:01:38.712Z,49.15
2023-03-05T13:04:05.396Z,47.41
2023-03-05T13:06:32.391Z,45.77
2023-03-05T13:09:00.482Z,46.60
2023-03-05T13:11:26.939Z,46.00
2023-03-05T13:13:53.551Z,45.92
2023-03-05T13:16:19.972Z,46.94
2023-03-05T13:18:46.382Z,47.30
2023-03-05T13:21:12.769Z,47.19
2023-03-05T13:23:39.175Z,47.35
2023-03-05T13:26:05.567Z,46.81
2023-03-05T13:28:32.035Z,46.11
2023-03-05T13:30:58.754Z,47.13
2023-03-05T13:33:25.136Z,44.93
2023-03-05T13:35:53.652Z,45.93
2023-03-05T13:38:20.503Z,46.67
2023-03-05T13:40:47.079Z,47.30
2023-03-05T13:43:13.717Z,46.82
2023-03-05T13:45:40.348Z,45.93
2023-03-05T13:48:06.884Z,46.36
2023-03-05T13:50:33.574Z,46.65
2023-03-05T13:52:59.969Z,45.12
2023-03-05T13:55:26.373Z,44.40
2023-03-05T13:57:53.228Z,43.63
2023-03-05T14:00:20.577Z,44.97
2023-03-05T14:02:47.616Z,44.43
2023-03-05T14:05:14.686Z,43.18
2023-03-05T14:07:41.093Z,43.19
2023-03-05T14:10:08.768Z,42.44
2023-03-05T14:12:35.407Z,42.13
2023-03-05T14:15:02.281Z,41.08
2023-03-05T14:17:28.697Z,40.72
2023-03-05T14:19:55.266Z,40.33
2023-03-05T14:22:22.971Z,40.56
2023-03-05T14:24:49.457Z,41.48
2023-03-05T14:27:16.329Z,41.08
2023-03-05T14:29:43.217Z,40.08
2023-03-05T14:32:09.956Z,39.02
2023-03-05T14:34:36.635Z,38.34
2023-03-05T14:37:03.054Z,39.77
2023-03-05T14:39:29.579Z,41.17
2023-03-05T14:41:56.089Z,40.58
2023-03-05T14:44:22.472Z,40.10
2023-03-05T14:46:48.834Z,40.45
2023-03-05T14:49:17.762Z,41.44
2023-03-05T14:51:44.557Z,40.55
2023-03-05T14:54:10.903Z,40.71
2023-03-05T14:56:37.510Z,40.65
2023-03-05T14:59:04.134Z,40.25
2023-03-05T15:01:30.642Z,40.77
2023-03-05T15:03:57.366Z,38.37
2023-03-05T15:06:26.074Z,38.56
2023-03-05T15:08:53.092Z,36.56
2023-03-05T15:11:19.531Z,37.07
2023-03-05T15:13:46.114Z,36.77
2023-03-05T15:16:12.508Z,34.85
2023-03-05T15:18:41.205Z,35.48
2023-03-05T15:21:07.601Z,35.93
2023-03-05T15:23:33.964Z,36.30
2023-03-05T15:26:00.556Z,35.82
2023-03-05T15:28:26.926Z,35.40
2023-03-05T15:30:53.312Z,36.36
2023-03-05T15:33:20.065Z,36.08
2023-03-05T15:35:46.491Z,36.66
2023-03-05T15:38:12.916Z,36.89
2023-03-05T15:40:39.295Z,36.60
2023-03-05T15:43:06.674Z,36.19
2023-03-05T15:45:33.116Z,35.59
2023-03-05T15:47:59.587Z,35.66
2023-03-05T15:50:26.042Z,35.15
2023-03-05T15:52:52.467Z,36.20
2023-03-05T15:55:18.871Z,36.22
2023-03-05T15:57:45.257Z,35.96
2023-03-05T16:00:11.642Z,42.26
2023-03-05T16:02:38.037Z,38.11
2023-03-05T16:05:04.420Z,37.12
2023-03-05T16:07:32.796Z,37.39
2023-03-05T16:09:59.271Z,37.58
2023-03-05T16:15:00.918Z,36.52
2023-03-05T16:17:27.301Z,37.16
2023-03-05T16:19:53.813Z,35.79
2023-03-05T16:22:20.198Z,35.92
2023-03-05T16:24:46.642Z,35.41
2023-03-05T16:27:13.054Z,35.61
2023-03-05T16:29:39.609Z,36.01
2023-03-05T17:10:23.772Z,38.87
2023-03-05T17:21:02.975Z,35.59
2023-03-05T17:26:18.232Z,34.40
2023-03-05T17:28:47.752Z,34.97
2023-03-05T17:39:43.946Z,37.56
2023-03-05T17:42:12.784Z,37.64
2023-03-05T17:47:22.804Z,39.02
2023-03-05T18:11:24.240Z,39.78
2023-03-05T18:13:52.298Z,40.12
2023-03-05T18:16:24.527Z,41.04
2023-03-05T18:18:52.189Z,40.23
2023-03-05T18:27:10.741Z,39.82
2023-03-05T18:32:21.634Z,39.24
2023-03-05T18:37:44.317Z,37.10
2023-03-05T18:40:11.143Z,39.31
2023-03-05T18:42:37.496Z,42.83
2023-03-05T18:45:04.182Z,42.79
2023-03-05T18:47:30.558Z,41.16
2023-03-05T18:49:56.954Z,39.35
2023-03-05T18:52:23.361Z,38.14
2023-03-05T18:54:50.051Z,38.06
2023-03-05T18:57:16.468Z,37.86
2023-03-05T18:59:42.838Z,37.82
2023-03-05T19:02:09.216Z,37.17
2023-03-05T19:04:35.638Z,37.52
2023-03-05T19:07:04.357Z,37.74
2023-03-05T19:09:31.125Z,37.58
2023-03-05T19:11:57.476Z,36.89
2023-03-05T19:14:23.811Z,37.40
2023-03-05T19:16:50.462Z,37.31
2023-03-05T19:19:17.046Z,37.84
2023-03-05T19:21:43.775Z,38.20
2023-03-05T19:24:10.609Z,36.98
2023-03-05T19:26:37.697Z,36.59
2023-03-05T19:29:06.953Z,36.68
2023-03-05T19:31:36.222Z,36.84
2023-03-05T19:34:02.819Z,36.94
2023-03-05T19:52:48.798Z,39.19
2023-03-05T20:00:50.235Z,37.14
2023-03-05T20:01:12.609Z,38.45
2023-03-05T20:03:17.650Z,36.43
2023-03-05T20:05:56.882Z,36.34
2023-03-05T20:11:03.798Z,36.84
2023-03-05T20:13:30.932Z,36.73
2023-03-05T20:15:59.024Z,35.61
2023-03-05T20:18:35.405Z,34.51
2023-03-05T22:35:57.762Z,34.65
2023-03-05T22:38:25.682Z,33.51
2023-03-05T22:40:52.393Z,34.19
2023-03-05T22:43:18.922Z,34.49
2023-03-05T22:45:46.465Z,34.46
2023-03-05T22:48:13.680Z,34.23
2023-03-05T22:50:42.565Z,35.31
2023-03-05T22:53:09.103Z,36.11
2023-03-05T22:55:35.937Z,36.06
2023-03-05T22:58:05.149Z,36.96
2023-03-05T23:00:31.811Z,36.68
2023-03-05T23:02:59.986Z,36.17
2023-03-05T23:05:30.369Z,36.77
2023-03-05T23:07:59.599Z,35.68
2023-03-05T23:10:27.257Z,35.84
2023-03-05T23:12:55.758Z,36.92
2023-03-05T23:15:22.233Z,35.64
2023-03-05T23:17:48.677Z,35.36
2023-03-05T23:20:15.090Z,35.34
2023-03-05T23:22:43.771Z,34.00
2023-03-05T23:25:10.231Z,34.77
2023-03-05T23:27:38.086Z,35.17
2023-03-05T23:30:04.524Z,33.65
2023-03-05T23:32:31.955Z,33.92
2023-03-05T23:34:58.645Z,34.56
2023-03-05T23:37:25.398Z,33.71
2023-03-05T23:39:52.969Z,32.39
2023-03-05T23:42:19.984Z,32.48
2023-03-05T23:44:46.430Z,33.20
2023-03-05T23:47:13.112Z,35.23
2023-03-05T23:49:42.474Z,35.82
2023-03-05T23:52:09.258Z,35.70
2023-03-05T23:54:36.116Z,35.16
2023-03-05T23:57:07.335Z,35.17
2023-03-05T23:59:33.836Z,36.13
